Weather at Wilderness Airport

Public forecast

Using degrees Fahrenheit for public forecast. Weather courtesy of forecast.io.

Closest aviation weather report (METAR) to Wilderness Airport

Closest report is Lake County Airport, 28.0 nm (51.8 km) ESE. Retrieved 2021/06/19 21:53 UTC (36 minutes ago):

KLKV 192153Z AUTO VRB03KT 10SM CLR 34/03 A3001 RMK AO2 SLP106 T03390028

Closest aviation forecast (TAF) to Wilderness Airport

Closest forecast is Crater Lake-Klamath Regional Airport, 36.3 nm (67.2 km) WSW. Retrieved 2021/06/19 18:22 UTC (4 hours ago):

TAF KLMT 191720Z 1918/2018 VRB03KT P6SM SKC FM192300 31012G18KT P6SM SKC FM200500 34005KT P6SM SKC